Time;durP1;ratioP1;P1;durP2;ratioP2;P2;SDS_P1;SDS_P2;PMS_P1;PMS_P2;Temp;Humidity;BMP_temperature;BMP_pressure;BME280_temperature;BME280_humidity;BME280_pressure;Samples;Min_cycle;Max_cycle;Signal;HPM_P1;HPM_P2
2022/12/21 00:01:56;;;;;;;20.83;12.87;;;;;;;;;;5072125;28;20479;-80
2022/12/21 00:04:22;;;;;;;19.47;13.03;;;;;;;;;;5076219;28;20505;-80
2022/12/21 00:06:49;;;;;;;18.07;11.83;;;;;;;;;;5071433;28;20474;-81
2022/12/21 00:09:15;;;;;;;17.43;11.63;;;;;;;;;;5077657;28;20490;-81
2022/12/21 00:11:42;;;;;;;17.70;11.27;;;;;;;;;;5070689;28;20479;-81
2022/12/21 00:14:10;;;;;;;21.87;12.23;;;;;;;;;;5074880;28;20455;-81
2022/12/21 00:16:37;;;;;;;18.50;12.10;;;;;;;;;;5069223;28;20544;-81
2022/12/21 00:19:05;;;;;;;19.03;12.00;;;;;;;;;;5070269;28;20467;-81
2022/12/21 00:21:32;;;;;;;20.00;12.97;;;;;;;;;;5071226;28;20473;-81
2022/12/21 00:23:59;;;;;;;21.57;12.30;;;;;;;;;;5067675;28;20488;-81
2022/12/21 00:26:26;;;;;;;19.60;12.70;;;;;;;;;;5070173;28;20458;-81
2022/12/21 00:28:54;;;;;;;19.70;12.50;;;;;;;;;;5068165;28;20471;-81
2022/12/21 00:31:23;;;;;;;17.43;12.70;;;;;;;;;;5071340;28;20463;-81
2022/12/21 00:33:50;;;;;;;20.40;12.90;;;;;;;;;;5071168;28;20951;-81
2022/12/21 00:36:18;;;;;;;18.10;12.57;;;;;;;;;;5068416;28;20467;-81
2022/12/21 00:38:46;;;;;;;21.10;12.27;;;;;;;;;;5069773;28;20479;-81
2022/12/21 00:41:14;;;;;;;17.97;11.60;;;;;;;;;;5070723;28;20837;-81
2022/12/21 00:43:41;;;;;;;24.53;12.80;;;;;;;;;;5070101;28;20448;-81
2022/12/21 00:46:10;;;;;;;19.73;12.83;;;;;;;;;;5067352;28;20459;-81
2022/12/21 00:48:39;;;;;;;23.27;12.00;;;;;;;;;;5065336;28;21081;-81
2022/12/21 00:51:06;;;;;;;19.27;11.87;;;;;;;;;;5067214;28;20972;-81
2022/12/21 00:53:32;;;;;;;18.43;11.20;;;;;;;;;;5070117;28;20444;-81
2022/12/21 00:56:01;;;;;;;23.43;12.13;;;;;;;;;;5067607;28;20461;-81
2022/12/21 00:58:28;;;;;;;19.83;11.10;;;;;;;;;;5069411;28;20492;-81
2022/12/21 01:00:54;;;;;;;20.70;11.73;;;;;;;;;;5069848;28;20447;-81
2022/12/21 01:03:21;;;;;;;18.90;12.27;;;;;;;;;;5066548;28;20468;-81
2022/12/21 01:05:49;;;;;;;25.93;12.63;;;;;;;;;;5071762;28;20447;-81
2022/12/21 01:08:16;;;;;;;19.23;10.60;;;;;;;;;;5072618;28;20498;-81
2022/12/21 01:10:43;;;;;;;18.13;10.13;;;;;;;;;;5068204;28;20856;-81
2022/12/21 01:13:10;;;;;;;15.80;10.77;;;;;;;;;;5067955;28;20475;-81
2022/12/21 01:15:40;;;;;;;17.97;11.73;;;;;;;;;;5070824;28;20463;-81
2022/12/21 01:18:06;;;;;;;21.80;12.47;;;;;;;;;;5074322;28;20848;-81
2022/12/21 01:20:32;;;;;;;15.50;10.53;;;;;;;;;;5069569;28;20456;-81
2022/12/21 01:23:00;;;;;;;18.33;9.93;;;;;;;;;;5071344;28;20836;-81
2022/12/21 01:25:26;;;;;;;20.67;10.73;;;;;;;;;;5071657;28;20443;-81
2022/12/21 01:27:52;;;;;;;15.83;10.17;;;;;;;;;;5066214;28;20864;-81
2022/12/21 01:30:19;;;;;;;19.43;10.37;;;;;;;;;;5070979;28;20475;-81
2022/12/21 01:32:45;;;;;;;20.63;9.80;;;;;;;;;;5066635;28;20471;-81
2022/12/21 01:35:12;;;;;;;18.80;9.73;;;;;;;;;;5069647;28;20458;-81
2022/12/21 01:37:38;;;;;;;22.87;11.43;;;;;;;;;;5068010;28;20483;-81
2022/12/21 01:40:07;;;;;;;21.00;11.90;;;;;;;;;;5070185;28;20451;-81
2022/12/21 01:42:33;;;;;;;22.27;11.87;;;;;;;;;;5070601;28;20476;-81
2022/12/21 01:45:02;;;;;;;17.97;11.20;;;;;;;;;;5067874;28;20924;-81
2022/12/21 01:47:33;;;;;;;26.23;12.07;;;;;;;;;;5068252;28;20479;-80
2022/12/21 01:50:01;;;;;;;23.47;11.70;;;;;;;;;;5063894;28;20472;-81
2022/12/21 01:52:28;;;;;;;22.50;11.27;;;;;;;;;;5068966;28;20470;-81
2022/12/21 01:54:57;;;;;;;33.20;13.30;;;;;;;;;;5069987;28;20450;-80
2022/12/21 01:57:27;;;;;;;27.73;12.67;;;;;;;;;;5067907;28;20997;-81
2022/12/21 01:59:55;;;;;;;21.60;11.80;;;;;;;;;;5069395;28;20450;-81
2022/12/21 02:02:24;;;;;;;25.70;12.10;;;;;;;;;;5069231;28;20467;-81
2022/12/21 02:04:51;;;;;;;27.20;13.13;;;;;;;;;;5066976;28;20982;-81
2022/12/21 02:07:18;;;;;;;30.60;13.40;;;;;;;;;;5064658;28;20463;-81
2022/12/21 02:09:44;;;;;;;26.07;13.07;;;;;;;;;;5071233;28;20489;-81
2022/12/21 02:12:13;;;;;;;31.63;15.30;;;;;;;;;;5067151;28;21028;-81
2022/12/21 02:14:43;;;;;;;27.53;15.40;;;;;;;;;;5069937;28;20448;-81
2022/12/21 02:17:11;;;;;;;27.20;14.57;;;;;;;;;;5069269;28;20463;-81
2022/12/21 02:19:49;;;;;;;28.43;13.93;;;;;;;;;;5067139;28;20921;-81
2022/12/21 02:22:20;;;;;;;32.77;15.53;;;;;;;;;;5067790;28;20471;-80
2022/12/21 02:25:04;;;;;;;33.87;13.90;;;;;;;;;;5068861;28;20440;-80
2022/12/21 02:27:41;;;;;;;26.57;13.97;;;;;;;;;;5060569;28;20479;-81
2022/12/21 02:30:11;;;;;;;29.53;15.23;;;;;;;;;;5064289;28;20475;-81
2022/12/21 02:32:56;;;;;;;29.20;13.40;;;;;;;;;;5071849;28;20464;-81
2022/12/21 02:35:31;;;;;;;30.00;13.73;;;;;;;;;;5065296;28;20459;-81
2022/12/21 02:38:02;;;;;;;25.17;13.83;;;;;;;;;;5063709;28;20479;-81
2022/12/21 02:40:34;;;;;;;31.60;13.83;;;;;;;;;;5066033;28;20921;-81
2022/12/21 02:45:51;;;;;;;31.63;14.13;;;;;;;;;;5067339;28;20424;-80
2022/12/21 02:48:22;;;;;;;33.20;13.03;;;;;;;;;;5067405;28;20478;-81
2022/12/21 02:50:50;;;;;;;100.03;18.03;;;;;;;;;;5063273;28;20484;-80
2022/12/21 02:53:17;;;;;;;54.97;15.07;;;;;;;;;;5064452;28;20450;-80
2022/12/21 02:55:44;;;;;;;25.10;11.60;;;;;;;;;;5067050;28;20468;-81
2022/12/21 02:58:12;;;;;;;17.20;9.53;;;;;;;;;;5067388;28;20486;-81
2022/12/21 03:00:40;;;;;;;19.83;11.73;;;;;;;;;;5065214;28;20459;-81
2022/12/21 03:06:11;;;;;;;19.87;12.73;;;;;;;;;;5064066;28;20828;-81
2022/12/21 03:08:44;;;;;;;74.13;15.00;;;;;;;;;;5067725;28;20859;-81
2022/12/21 03:11:11;;;;;;;23.97;12.10;;;;;;;;;;5056192;28;20500;-81
2022/12/21 03:13:44;;;;;;;22.47;12.00;;;;;;;;;;5064428;28;20460;-80
2022/12/21 03:16:14;;;;;;;27.67;13.20;;;;;;;;;;5062521;28;20467;-81
2022/12/21 03:18:45;;;;;;;25.50;13.80;;;;;;;;;;5068851;28;20483;-81
2022/12/21 03:21:13;;;;;;;31.90;14.67;;;;;;;;;;5066824;28;20461;-81
2022/12/21 03:23:42;;;;;;;28.80;13.40;;;;;;;;;;5068121;28;20459;-81
2022/12/21 03:26:10;;;;;;;33.10;14.10;;;;;;;;;;5069221;28;20460;-81
2022/12/21 03:28:39;;;;;;;29.03;12.50;;;;;;;;;;5064436;28;20479;-80
2022/12/21 03:31:08;;;;;;;53.13;16.00;;;;;;;;;;5067544;28;20990;-81
2022/12/21 03:33:36;;;;;;;36.57;12.03;;;;;;;;;;5069587;28;20451;-81
2022/12/21 03:36:04;;;;;;;69.97;13.27;;;;;;;;;;5063075;28;20459;-81
2022/12/21 03:38:32;;;;;;;25.23;8.83;;;;;;;;;;5065477;28;20478;-81
2022/12/21 03:41:01;;;;;;;31.63;12.20;;;;;;;;;;5067997;28;20550;-80
2022/12/21 03:43:30;;;;;;;75.70;12.17;;;;;;;;;;5066873;28;20464;-81
2022/12/21 03:45:58;;;;;;;86.13;11.70;;;;;;;;;;5061961;28;20459;-81
2022/12/21 03:48:27;;;;;;;53.30;9.83;;;;;;;;;;5069719;28;21097;-81
2022/12/21 03:50:55;;;;;;;25.27;7.73;;;;;;;;;;5068351;28;20502;-81
2022/12/21 03:53:26;;;;;;;88.43;11.67;;;;;;;;;;5070101;28;20443;-81
2022/12/21 03:55:54;;;;;;;11.67;7.10;;;;;;;;;;5074985;28;20459;-80
2022/12/21 03:58:21;;;;;;;10.40;5.30;;;;;;;;;;5070153;28;20518;-81
2022/12/21 04:00:51;;;;;;;19.80;8.73;;;;;;;;;;5075103;28;20436;-81
2022/12/21 04:03:21;;;;;;;45.20;14.77;;;;;;;;;;5069068;28;20452;-81
2022/12/21 04:05:50;;;;;;;81.90;18.97;;;;;;;;;;5075783;28;20458;-81
2022/12/21 04:08:16;;;;;;;106.00;22.13;;;;;;;;;;5073560;28;20566;-80
2022/12/21 04:10:43;;;;;;;94.83;18.87;;;;;;;;;;5070687;28;20486;-80
2022/12/21 04:13:08;;;;;;;55.97;18.57;;;;;;;;;;5068101;28;20479;-81
2022/12/21 04:19:57;;;;;;;153.47;22.37;;;;;;;;;;5066418;28;20231;-81
2022/12/21 04:21:05;;;;;;;133.87;20.93;;;;;;;;;;5070284;28;20436;-80
2022/12/21 04:29:00;;;;;;;60.93;17.63;;;;;;;;;;5074742;28;20466;-81
2022/12/21 04:31:28;;;;;;;131.07;25.20;;;;;;;;;;5069969;28;20968;-80
2022/12/21 04:33:54;;;;;;;62.00;17.97;;;;;;;;;;5073978;28;20452;-80
2022/12/21 04:39:04;;;;;;;89.28;24.55;;;;;;;;;;5070824;28;20398;-80
2022/12/21 04:41:31;;;;;;;62.50;23.25;;;;;;;;;;5071789;28;20409;-80
2022/12/21 04:43:58;;;;;;;114.13;26.30;;;;;;;;;;5070478;28;20422;-81
2022/12/21 04:46:26;;;;;;;119.25;26.42;;;;;;;;;;5067112;28;20428;-80
2022/12/21 04:48:54;;;;;;;83.28;26.00;;;;;;;;;;5072688;28;20437;-83
2022/12/21 04:51:23;;;;;;;212.43;35.22;;;;;;;;;;5064458;28;20412;-80
2022/12/21 04:53:51;;;;;;;300.20;41.17;;;;;;;;;;5070555;28;20984;-80
2022/12/21 04:56:19;;;;;;;169.35;34.78;;;;;;;;;;5067057;28;20407;-80
2022/12/21 04:58:46;;;;;;;62.80;24.55;;;;;;;;;;5068012;28;20431;-80
2022/12/21 05:01:13;;;;;;;79.03;27.98;;;;;;;;;;5064883;28;20415;-81
2022/12/21 05:03:39;;;;;;;70.40;26.30;;;;;;;;;;5065983;28;20447;-80
2022/12/21 05:06:07;;;;;;;68.75;27.73;;;;;;;;;;5067352;28;20818;-81
2022/12/21 05:08:34;;;;;;;153.38;33.90;;;;;;;;;;5068416;28;20431;-80
2022/12/21 05:11:06;;;;;;;93.35;25.52;;;;;;;;;;5069210;28;20517;-81
2022/12/21 05:13:33;;;;;;;110.82;28.30;;;;;;;;;;5072046;28;20430;-81
2022/12/21 05:16:02;;;;;;;347.17;43.60;;;;;;;;;;5068449;28;20454;-81
2022/12/21 05:18:28;;;;;;;215.07;33.05;;;;;;;;;;5065941;28;20428;-81
2022/12/21 05:20:55;;;;;;;269.88;35.92;;;;;;;;;;5067872;28;20422;-81
2022/12/21 05:23:23;;;;;;;62.20;24.33;;;;;;;;;;5066955;28;20428;-81
2022/12/21 05:25:49;;;;;;;114.90;28.25;;;;;;;;;;5069703;28;20900;-81
2022/12/21 05:28:16;;;;;;;77.57;24.65;;;;;;;;;;5071621;28;20426;-80
2022/12/21 05:30:42;;;;;;;108.95;26.52;;;;;;;;;;5071144;28;20551;-82
2022/12/21 05:33:08;;;;;;;226.63;37.35;;;;;;;;;;5064140;28;20432;-81
2022/12/21 05:35:38;;;;;;;341.90;44.30;;;;;;;;;;5071188;28;20433;-81
2022/12/21 05:38:05;;;;;;;104.93;27.08;;;;;;;;;;5060309;28;20425;-80
2022/12/21 05:40:33;;;;;;;84.55;25.80;;;;;;;;;;5061417;28;20429;-80
2022/12/21 05:42:59;;;;;;;290.58;40.30;;;;;;;;;;5065076;28;20926;-80
2022/12/21 05:45:25;;;;;;;157.27;29.02;;;;;;;;;;5068694;28;20468;-81
2022/12/21 05:47:52;;;;;;;150.63;29.02;;;;;;;;;;5063661;28;20449;-81
2022/12/21 05:50:18;;;;;;;102.95;25.65;;;;;;;;;;5064644;28;20926;-80
2022/12/21 05:52:44;;;;;;;300.25;39.70;;;;;;;;;;5059414;28;20426;-81
2022/12/21 05:55:12;;;;;;;378.53;43.00;;;;;;;;;;5063679;28;20425;-81
2022/12/21 05:57:41;;;;;;;107.80;26.50;;;;;;;;;;5067459;28;20438;-80
2022/12/21 06:00:08;;;;;;;219.02;35.22;;;;;;;;;;5060712;28;20416;-81
2022/12/21 06:02:34;;;;;;;177.57;32.40;;;;;;;;;;5071450;28;20512;-80
2022/12/21 06:05:01;;;;;;;274.48;43.40;;;;;;;;;;5065335;28;20463;-80
2022/12/21 06:07:29;;;;;;;106.97;26.25;;;;;;;;;;5071453;28;20416;-81
2022/12/21 06:09:55;;;;;;;68.95;24.10;;;;;;;;;;5068775;28;20798;-81
2022/12/21 06:12:22;;;;;;;178.15;32.40;;;;;;;;;;5063083;28;21358;-81
2022/12/21 06:14:49;;;;;;;117.75;26.75;;;;;;;;;;5061337;28;20814;-81
2022/12/21 06:17:16;;;;;;;109.07;25.30;;;;;;;;;;5061713;28;20755;-81
2022/12/21 06:19:42;;;;;;;122.47;27.63;;;;;;;;;;5068526;28;20436;-81
2022/12/21 06:22:08;;;;;;;69.87;23.90;;;;;;;;;;5064670;28;20435;-81
2022/12/21 06:24:35;;;;;;;212.32;33.13;;;;;;;;;;5065829;28;20429;-81
2022/12/21 06:27:01;;;;;;;46.40;19.42;;;;;;;;;;5064141;28;20425;-81
2022/12/21 06:29:27;;;;;;;175.38;30.40;;;;;;;;;;5063762;28;20424;-81
2022/12/21 06:31:55;;;;;;;266.67;35.65;;;;;;;;;;5067856;28;20430;-80
2022/12/21 06:34:21;;;;;;;69.95;22.15;;;;;;;;;;5069378;28;20414;-81
2022/12/21 06:36:48;;;;;;;317.10;40.27;;;;;;;;;;5063828;28;20936;-81
2022/12/21 06:39:14;;;;;;;341.23;41.60;;;;;;;;;;5071524;28;20794;-81
2022/12/21 06:41:41;;;;;;;263.07;38.20;;;;;;;;;;5063748;28;20782;-80
2022/12/21 06:44:08;;;;;;;94.43;25.52;;;;;;;;;;5067017;28;20433;-80
2022/12/21 06:46:34;;;;;;;219.30;36.78;;;;;;;;;;5057757;28;20437;-83
2022/12/21 06:49:04;;;;;;;241.17;37.07;;;;;;;;;;5069277;28;20425;-81
2022/12/21 06:51:30;;;;;;;302.90;42.22;;;;;;;;;;5067686;28;20421;-81
2022/12/21 06:53:57;;;;;;;277.63;41.08;;;;;;;;;;5062996;28;20789;-81
2022/12/21 06:56:24;;;;;;;161.45;35.03;;;;;;;;;;5067446;28;20942;-80
2022/12/21 06:58:52;;;;;;;262.65;41.65;;;;;;;;;;5066935;28;20432;-81
2022/12/21 07:01:19;;;;;;;370.35;47.13;;;;;;;;;;5062485;28;20404;-80
2022/12/21 07:03:45;;;;;;;105.10;29.13;;;;;;;;;;5059691;28;20435;-81
2022/12/21 07:06:15;;;;;;;145.60;32.17;;;;;;;;;;5060059;28;20411;-80
2022/12/21 07:08:41;;;;;;;179.68;33.15;;;;;;;;;;5064310;28;20427;-80
2022/12/21 07:11:09;;;;;;;131.77;30.90;;;;;;;;;;5067173;28;20406;-81
2022/12/21 07:13:35;;;;;;;283.98;45.63;;;;;;;;;;5070952;28;20421;-81
2022/12/21 07:16:02;;;;;;;122.20;34.97;;;;;;;;;;5059352;28;20455;-80
2022/12/21 07:18:28;;;;;;;140.93;34.33;;;;;;;;;;5063699;28;20436;-81
2022/12/21 07:20:58;;;;;;;306.85;50.90;;;;;;;;;;5064375;28;20497;-81
2022/12/21 07:23:26;;;;;;;344.30;52.13;;;;;;;;;;5064140;28;20433;-80
2022/12/21 07:25:54;;;;;;;139.20;34.53;;;;;;;;;;5064382;28;20421;-81
2022/12/21 07:28:22;;;;;;;248.82;44.85;;;;;;;;;;5071485;28;20429;-81
2022/12/21 07:30:51;;;;;;;206.00;40.67;;;;;;;;;;5068787;28;20419;-80
2022/12/21 07:33:19;;;;;;;357.08;55.15;;;;;;;;;;5072524;28;20423;-80
2022/12/21 07:35:45;;;;;;;281.88;46.60;;;;;;;;;;5072847;28;20469;-80
2022/12/21 07:38:12;;;;;;;268.95;46.67;;;;;;;;;;5064987;28;20428;-81
2022/12/21 07:40:39;;;;;;;344.20;50.43;;;;;;;;;;5072264;28;20427;-81
2022/12/21 07:43:07;;;;;;;481.67;59.70;;;;;;;;;;5068144;28;20409;-81
2022/12/21 07:45:33;;;;;;;376.30;52.60;;;;;;;;;;5070315;28;20412;-80
2022/12/21 07:48:01;;;;;;;128.77;35.90;;;;;;;;;;5067252;28;20921;-80
2022/12/21 07:50:27;;;;;;;227.65;42.95;;;;;;;;;;5071557;28;20434;-81
2022/12/21 07:52:54;;;;;;;122.88;33.72;;;;;;;;;;5072501;28;20429;-81
2022/12/21 07:55:21;;;;;;;212.55;42.80;;;;;;;;;;5066756;28;20463;-80
2022/12/21 07:57:49;;;;;;;123.32;32.75;;;;;;;;;;5072638;28;20417;-80
2022/12/21 08:00:16;;;;;;;207.20;39.58;;;;;;;;;;5067699;28;20408;-81
2022/12/21 08:02:42;;;;;;;355.05;50.90;;;;;;;;;;5063592;28;20424;-83
2022/12/21 08:05:09;;;;;;;351.20;48.80;;;;;;;;;;5067022;28;20419;-80
2022/12/21 08:07:35;;;;;;;543.22;65.07;;;;;;;;;;5067891;28;20426;-80
2022/12/21 08:10:02;;;;;;;156.60;41.38;;;;;;;;;;5069320;28;20423;-81
2022/12/21 08:12:29;;;;;;;274.33;48.55;;;;;;;;;;5070863;28;20427;-80
2022/12/21 08:14:57;;;;;;;306.95;50.55;;;;;;;;;;5062912;28;20435;-80
2022/12/21 08:17:23;;;;;;;277.70;51.63;;;;;;;;;;5066833;28;20770;-81
2022/12/21 08:19:50;;;;;;;327.85;50.75;;;;;;;;;;5065185;28;20528;-81
2022/12/21 08:22:16;;;;;;;364.00;54.92;;;;;;;;;;5068303;28;21014;-80
2022/12/21 08:24:42;;;;;;;128.88;39.78;;;;;;;;;;5067678;28;20806;-81
2022/12/21 08:27:11;;;;;;;218.32;45.78;;;;;;;;;;5066699;28;20417;-80
2022/12/21 08:29:37;;;;;;;557.15;67.70;;;;;;;;;;5072513;28;20420;-80
2022/12/21 08:32:05;;;;;;;349.15;52.55;;;;;;;;;;5068998;28;20417;-81
2022/12/21 08:34:31;;;;;;;136.15;38.03;;;;;;;;;;5066106;28;20432;-80
2022/12/21 08:36:57;;;;;;;169.40;41.88;;;;;;;;;;5068831;28;20429;-80
2022/12/21 08:39:24;;;;;;;258.00;43.97;;;;;;;;;;5059425;28;20441;-81
2022/12/21 08:41:50;;;;;;;335.05;49.80;;;;;;;;;;5064906;28;20527;-81
2022/12/21 08:44:17;;;;;;;272.65;48.50;;;;;;;;;;5066474;28;20448;-81
2022/12/21 08:46:43;;;;;;;411.85;57.22;;;;;;;;;;5064557;28;20462;-81
2022/12/21 08:49:11;;;;;;;338.83;51.92;;;;;;;;;;5059900;28;20433;-81
2022/12/21 08:51:38;;;;;;;192.85;40.83;;;;;;;;;;5065123;28;20430;-80
2022/12/21 08:54:05;;;;;;;200.57;44.35;;;;;;;;;;5065815;28;20433;-81
2022/12/21 08:56:31;;;;;;;378.02;55.45;;;;;;;;;;5060385;28;20433;-80
2022/12/21 08:59:00;;;;;;;234.13;46.53;;;;;;;;;;5070622;28;20437;-81
2022/12/21 09:01:26;;;;;;;211.48;43.80;;;;;;;;;;5070287;28;20883;-80
2022/12/21 09:03:53;;;;;;;346.38;52.45;;;;;;;;;;5065754;28;20422;-80
2022/12/21 09:06:21;;;;;;;398.50;58.50;;;;;;;;;;5065958;28;20414;-81
2022/12/21 09:08:47;;;;;;;165.10;41.67;;;;;;;;;;5069031;28;20435;-81
2022/12/21 09:11:15;;;;;;;345.90;52.93;;;;;;;;;;5067099;28;20431;-80
2022/12/21 09:13:41;;;;;;;392.42;58.63;;;;;;;;;;5068109;28;20431;-81
2022/12/21 09:16:12;;;;;;;141.25;41.28;;;;;;;;;;5060264;28;20384;-80
2022/12/21 09:18:39;;;;;;;160.23;40.67;;;;;;;;;;5065282;28;20477;-81
2022/12/21 09:21:05;;;;;;;532.50;67.90;;;;;;;;;;5065257;28;20429;-81
2022/12/21 09:23:33;;;;;;;411.70;59.35;;;;;;;;;;5066966;28;20799;-80
2022/12/21 09:26:01;;;;;;;399.73;58.15;;;;;;;;;;5064838;28;20432;-80
2022/12/21 09:28:27;;;;;;;275.13;49.65;;;;;;;;;;5071841;28;20438;-80
2022/12/21 09:30:53;;;;;;;167.10;42.65;;;;;;;;;;5062544;28;20436;-80
2022/12/21 09:33:23;;;;;;;424.65;60.97;;;;;;;;;;5071057;28;20435;-80
2022/12/21 09:35:51;;;;;;;419.00;62.97;;;;;;;;;;5070500;28;20427;-81
2022/12/21 09:38:17;;;;;;;285.23;52.50;;;;;;;;;;5070646;28;20423;-81
2022/12/21 09:40:45;;;;;;;147.27;43.92;;;;;;;;;;5068727;28;20409;-81
2022/12/21 09:43:15;;;;;;;175.52;46.97;;;;;;;;;;5068942;28;20515;-81
2022/12/21 09:45:49;;;;;;;150.77;42.47;;;;;;;;;;5065044;28;20409;-81
2022/12/21 09:48:18;;;;;;;156.57;44.35;;;;;;;;;;5065437;28;20429;-81
2022/12/21 09:50:46;;;;;;;184.25;45.90;;;;;;;;;;5063275;28;20929;-81
2022/12/21 09:53:17;;;;;;;208.20;47.78;;;;;;;;;;5065773;28;20427;-80
2022/12/21 09:55:47;;;;;;;174.47;45.73;;;;;;;;;;5068686;28;20427;-81
2022/12/21 09:58:15;;;;;;;139.63;44.92;;;;;;;;;;5066017;28;20427;-81
2022/12/21 10:00:44;;;;;;;197.73;49.93;;;;;;;;;;5065968;28;20791;-81
2022/12/21 10:03:38;;;;;;;222.65;49.13;;;;;;;;;;5067271;28;20422;-80
2022/12/21 10:06:18;;;;;;;155.55;43.65;;;;;;;;;;5063411;28;20433;-81
2022/12/21 10:08:54;;;;;;;190.52;47.30;;;;;;;;;;5065637;28;20437;-80
2022/12/21 10:11:30;;;;;;;177.70;46.95;;;;;;;;;;5071026;28;20415;-80
2022/12/21 10:14:02;;;;;;;180.17;46.00;;;;;;;;;;5064690;28;20514;-81
2022/12/21 10:16:33;;;;;;;157.50;43.95;;;;;;;;;;5061464;28;20423;-81
2022/12/21 10:19:02;;;;;;;135.70;43.92;;;;;;;;;;5062432;28;20432;-80
2022/12/21 10:21:33;;;;;;;143.77;41.47;;;;;;;;;;5067222;28;20421;-80
2022/12/21 10:24:00;;;;;;;142.15;44.55;;;;;;;;;;5065007;28;20422;-81
2022/12/21 10:26:28;;;;;;;140.13;41.70;;;;;;;;;;5065324;28;20424;-81
2022/12/21 10:28:59;;;;;;;130.23;41.38;;;;;;;;;;5069113;28;20425;-81
2022/12/21 10:31:28;;;;;;;133.65;42.03;;;;;;;;;;5069024;28;20436;-81
2022/12/21 10:33:55;;;;;;;128.70;40.55;;;;;;;;;;5067515;28;20983;-81
2022/12/21 10:36:25;;;;;;;120.13;38.07;;;;;;;;;;5067296;28;20427;-81
2022/12/21 10:38:51;;;;;;;127.70;40.95;;;;;;;;;;5067052;28;20426;-81
2022/12/21 10:41:20;;;;;;;130.50;40.80;;;;;;;;;;5064248;28;20810;-81
2022/12/21 10:43:48;;;;;;;127.32;40.45;;;;;;;;;;5062975;28;20428;-81
2022/12/21 10:46:16;;;;;;;114.90;37.40;;;;;;;;;;5067305;28;20409;-81
2022/12/21 10:48:42;;;;;;;117.67;40.90;;;;;;;;;;5061560;28;20445;-80
2022/12/21 10:51:18;;;;;;;113.13;39.40;;;;;;;;;;5066102;28;20414;-80
2022/12/21 10:53:57;;;;;;;92.82;36.15;;;;;;;;;;5059779;28;20431;-80
2022/12/21 10:56:24;;;;;;;95.70;34.90;;;;;;;;;;5065787;28;20419;-82
2022/12/21 10:58:53;;;;;;;94.47;34.53;;;;;;;;;;5064338;28;20528;-80
2022/12/21 11:01:24;;;;;;;90.32;33.70;;;;;;;;;;5062562;28;20404;-80
2022/12/21 11:04:06;;;;;;;84.80;32.90;;;;;;;;;;5066046;28;20423;-80
2022/12/21 11:06:33;;;;;;;96.00;35.53;;;;;;;;;;5058430;28;20432;-80
2022/12/21 11:08:59;;;;;;;94.60;34.95;;;;;;;;;;5062746;28;20786;-80
2022/12/21 11:11:27;;;;;;;77.70;33.35;;;;;;;;;;5062034;28;20443;-80
2022/12/21 11:13:57;;;;;;;81.40;33.75;;;;;;;;;;5066793;28;20430;-80
2022/12/21 11:16:26;;;;;;;76.40;32.88;;;;;;;;;;5065571;28;20410;-80
2022/12/21 11:18:56;;;;;;;79.45;31.88;;;;;;;;;;5067737;28;20436;-80
2022/12/21 11:21:29;;;;;;;88.30;33.28;;;;;;;;;;5060960;28;20408;-80
2022/12/21 11:23:57;;;;;;;86.00;34.53;;;;;;;;;;5066719;28;20425;-80
2022/12/21 11:26:26;;;;;;;81.40;35.03;;;;;;;;;;5060373;28;20939;-80
2022/12/21 11:29:00;;;;;;;97.55;35.55;;;;;;;;;;5059451;28;20908;-81
2022/12/21 11:31:29;;;;;;;82.30;34.60;;;;;;;;;;5064214;28;20422;-80
2022/12/21 11:33:55;;;;;;;77.60;33.42;;;;;;;;;;5066204;28;20439;-80
2022/12/21 11:36:21;;;;;;;78.18;33.38;;;;;;;;;;5063131;28;20419;-80
2022/12/21 11:38:48;;;;;;;78.88;32.75;;;;;;;;;;5067285;28;20937;-82
2022/12/21 11:41:23;;;;;;;71.82;29.98;;;;;;;;;;5055414;28;20413;-81
2022/12/21 11:43:51;;;;;;;76.18;30.15;;;;;;;;;;5060130;28;20783;-80
2022/12/21 11:46:23;;;;;;;67.85;30.05;;;;;;;;;;5063200;28;20432;-81
2022/12/21 11:48:55;;;;;;;73.15;31.42;;;;;;;;;;5063418;28;20447;-80
2022/12/21 11:51:26;;;;;;;66.40;30.42;;;;;;;;;;5063205;28;20405;-80
2022/12/21 11:54:05;;;;;;;64.40;28.60;;;;;;;;;;5065768;28;20425;-81
2022/12/21 11:56:33;;;;;;;66.22;27.98;;;;;;;;;;5063837;28;20412;-80
2022/12/21 11:59:10;;;;;;;63.28;28.90;;;;;;;;;;5062560;28;20492;-81
2022/12/21 12:01:44;;;;;;;64.90;29.63;;;;;;;;;;5062947;28;20417;-80
2022/12/21 12:04:16;;;;;;;70.35;29.92;;;;;;;;;;5063662;28;20512;-81
2022/12/21 12:06:50;;;;;;;65.95;29.45;;;;;;;;;;5060695;28;20798;-81
2022/12/21 12:09:24;;;;;;;56.10;28.15;;;;;;;;;;5060404;28;20429;-81
2022/12/21 12:11:55;;;;;;;60.92;28.02;;;;;;;;;;5062610;28;20424;-81
2022/12/21 12:14:37;;;;;;;65.55;29.60;;;;;;;;;;5066684;28;20928;-81
2022/12/21 12:17:10;;;;;;;60.00;29.50;;;;;;;;;;5068150;28;22324;-81
2022/12/21 12:19:45;;;;;;;60.50;28.23;;;;;;;;;;5068886;28;20416;-81
2022/12/21 12:22:16;;;;;;;66.15;30.90;;;;;;;;;;5068336;28;20417;-82
2022/12/21 12:24:52;;;;;;;62.78;29.10;;;;;;;;;;5073565;28;20428;-79
2022/12/21 12:27:24;;;;;;;62.67;27.92;;;;;;;;;;5065051;28;20425;-80
2022/12/21 12:30:02;;;;;;;64.23;29.30;;;;;;;;;;5065048;28;20523;-80
2022/12/21 12:35:30;;;;;;;67.05;30.67;;;;;;;;;;5084478;28;20391;-81
2022/12/21 12:38:03;;;;;;;60.70;30.00;;;;;;;;;;5043919;28;20412;-81
2022/12/21 12:40:36;;;;;;;60.85;28.48;;;;;;;;;;5035112;28;20505;-81
2022/12/21 12:43:10;;;;;;;58.65;28.27;;;;;;;;;;5026240;28;20426;-81
2022/12/21 12:45:39;;;;;;;56.60;28.40;;;;;;;;;;5031638;28;20439;-80
2022/12/21 12:48:13;;;;;;;60.40;26.80;;;;;;;;;;5033805;28;20423;-82
2022/12/21 12:50:44;;;;;;;67.05;29.75;;;;;;;;;;5032028;28;20913;-81
2022/12/21 12:53:24;;;;;;;61.95;28.42;;;;;;;;;;5014551;28;20424;-80
2022/12/21 12:55:57;;;;;;;66.93;30.37;;;;;;;;;;5008910;28;20505;-81
2022/12/21 12:58:27;;;;;;;56.53;27.10;;;;;;;;;;5012306;28;20974;-80
2022/12/21 13:00:59;;;;;;;54.47;26.90;;;;;;;;;;5008224;28;20432;-81
2022/12/21 13:03:29;;;;;;;56.87;26.50;;;;;;;;;;5012477;28;20421;-81
2022/12/21 13:06:03;;;;;;;62.55;25.45;;;;;;;;;;5011220;28;20433;-81
2022/12/21 13:08:35;;;;;;;51.33;25.92;;;;;;;;;;5009085;28;20442;-81
2022/12/21 13:11:06;;;;;;;54.28;24.80;;;;;;;;;;5012353;28;20433;-81
2022/12/21 13:13:35;;;;;;;52.97;24.90;;;;;;;;;;5007386;28;21133;-81
2022/12/21 13:16:04;;;;;;;50.37;26.33;;;;;;;;;;5009938;28;20986;-81
2022/12/21 13:18:33;;;;;;;55.35;26.08;;;;;;;;;;5011666;28;20450;-81
2022/12/21 13:21:04;;;;;;;62.20;27.02;;;;;;;;;;5014900;28;20505;-80
2022/12/21 13:23:35;;;;;;;49.97;25.30;;;;;;;;;;5008006;28;20427;-81
2022/12/21 13:26:06;;;;;;;58.08;27.80;;;;;;;;;;5012058;28;20430;-81
2022/12/21 13:28:36;;;;;;;62.50;32.25;;;;;;;;;;5008969;28;20445;-81
2022/12/21 13:31:07;;;;;;;67.45;30.90;;;;;;;;;;5007215;28;20433;-81
2022/12/21 13:33:38;;;;;;;56.67;28.92;;;;;;;;;;5016344;28;20514;-80
2022/12/21 13:36:10;;;;;;;62.53;30.10;;;;;;;;;;5027071;28;20890;-81
2022/12/21 13:38:37;;;;;;;55.67;29.23;;;;;;;;;;5029082;28;20415;-81
2022/12/21 13:41:06;;;;;;;61.25;30.30;;;;;;;;;;5028504;28;20420;-81
2022/12/21 13:43:35;;;;;;;56.75;27.45;;;;;;;;;;5034909;28;20774;-81
2022/12/21 13:46:03;;;;;;;64.50;29.08;;;;;;;;;;5020675;28;20423;-81
2022/12/21 13:48:31;;;;;;;61.90;29.95;;;;;;;;;;5014184;28;20476;-80
2022/12/21 13:51:03;;;;;;;57.55;27.05;;;;;;;;;;5012604;28;20428;-80
2022/12/21 13:53:38;;;;;;;57.92;29.00;;;;;;;;;;5011385;28;20448;-80
2022/12/21 13:56:07;;;;;;;59.03;28.63;;;;;;;;;;5013127;28;20428;-81
2022/12/21 13:58:38;;;;;;;57.00;29.65;;;;;;;;;;5020381;28;20437;-81
2022/12/21 14:01:11;;;;;;;62.08;28.30;;;;;;;;;;5010669;28;20434;-81
2022/12/21 14:03:43;;;;;;;58.83;28.75;;;;;;;;;;5017089;28;20442;-80
2022/12/21 14:06:24;;;;;;;58.60;29.73;;;;;;;;;;5019255;28;20910;-81
2022/12/21 14:08:59;;;;;;;59.15;29.73;;;;;;;;;;5020964;28;20910;-81
2022/12/21 14:11:35;;;;;;;54.95;31.58;;;;;;;;;;5015619;28;20508;-81
2022/12/21 14:14:19;;;;;;;55.42;29.45;;;;;;;;;;5014858;28;20490;-81
2022/12/21 14:16:45;;;;;;;55.95;30.65;;;;;;;;;;5013006;28;20459;-81
2022/12/21 14:19:16;;;;;;;64.35;30.10;;;;;;;;;;5009254;28;20425;-81
2022/12/21 14:21:45;;;;;;;62.85;29.92;;;;;;;;;;5015688;28;20422;-81
2022/12/21 14:24:19;;;;;;;60.15;31.10;;;;;;;;;;5021397;28;20462;-81
2022/12/21 14:26:48;;;;;;;63.50;31.85;;;;;;;;;;5019410;28;20517;-81
2022/12/21 14:29:19;;;;;;;58.78;30.65;;;;;;;;;;5015795;28;20443;-81
2022/12/21 14:31:51;;;;;;;63.13;32.28;;;;;;;;;;5018402;28;20895;-81
2022/12/21 14:34:19;;;;;;;62.63;30.77;;;;;;;;;;5011690;28;20432;-80
2022/12/21 14:37:09;;;;;;;63.22;31.95;;;;;;;;;;5012697;28;20413;-81
2022/12/21 14:39:40;;;;;;;55.75;29.85;;;;;;;;;;5001588;28;20434;-81
2022/12/21 14:42:25;;;;;;;57.67;29.90;;;;;;;;;;5014461;28;20426;-81